| time (UTC) | temp F | wind direction | speed knots | gust knots | rain 1hr in | rain 24hr in | rain mn in | humidity % | barometer mb |
| 20260507091545 | 57 | 329 | 0.9 | 5.2 | 0.00 | 0.07 | 0.02 | 85 | 1011.2 |
| 20260507090041 | 57 | 275 | 1.7 | 8.7 | 0.00 | 0.07 | 0.02 | 87 | 1010.9 |
| 20260507084540 | 58 | 82 | 1.7 | 7.0 | 0.00 | 0.07 | 0.02 | 90 | 1011.0 |
| 20260507083038 | 58 | 0 | 0.9 | 2.6 | 0.00 | 0.07 | 0.02 | 92 | 1011.1 |
| 20260507081535 | 58 | 355 | 0.0 | 9.6 | 0.00 | 0.07 | 0.02 | 92 | 1010.5 |
| 20260507080040 | 58 | 19 | 0.9 | 3.5 | 0.00 | 0.07 | 0.02 | 91 | 1010.5 |
| 20260507074543 | 58 | 290 | 2.6 | 9.6 | 0.01 | 0.07 | 0.02 | 91 | 1010.4 |
| 20260507073035 | 59 | 263 | 2.6 | 7.0 | 0.01 | 0.07 | 0.02 | 92 | 1010.8 |
| 20260507071538 | 60 | 311 | 2.6 | 9.6 | 0.01 | 0.07 | 0.02 | 92 | 1010.6 |
| 20260507070044 | 60 | 290 | 1.7 | 6.1 | 0.01 | 0.07 | 0.02 | 92 | 1010.0 |
| 20260507064537 | 61 | 350 | 0.0 | 7.8 | 0.00 | 0.06 | 0.01 | 91 | 1009.5 |
| 20260507063040 | 62 | 300 | 2.6 | 7.0 | 0.00 | 0.06 | 0.01 | 90 | 1009.2 |
| 20260507061538 | 63 | 258 | 3.5 | 8.7 | 0.00 | 0.06 | 0.01 | 90 | 1009.2 |
| 20260507060044 | 64 | 0 | 0.0 | 2.6 | 0.01 | 0.06 | 0.01 | 92 | 1009.2 |
| 20260507054535 | 65 | 0 | 0.0 | 0.0 | 0.01 | 0.06 | 0.01 | 92 | 1009.4 |
| 20260507053038 | 65 | 0 | 0.0 | 0.0 | 0.01 | 0.06 | 0.01 | 91 | 1009.9 |
| 20260507051542 | 65 | 0 | 0.0 | 0.0 | 0.01 | 0.06 | 0.01 | 90 | 1009.8 |
| 20260507050043 | 66 | 0 | 0.0 | 0.0 | 0.00 | 0.05 | 0.00 | 89 | 1009.9 |
| 20260507044537 | 66 | 0 | 0.0 | 0.0 | 0.00 | 0.05 | 0.00 | 89 | 1009.9 |
| 20260507043042 | 66 | 0 | 0.0 | 0.0 | 0.00 | 0.05 | 0.00 | 89 | 1009.7 |
| 20260507041537 | 65 | 0 | 0.0 | 0.0 | 0.00 | 0.05 | 0.00 | 88 | 1009.8 |
| 20260507040044 | 66 | 0 | 0.0 | 0.0 | 0.00 | 0.05 | 0.00 | 88 | 1009.8 |
| 20260507034553 | 65 | 0 | 0.0 | 0.0 | 0.00 | 0.05 | 0.05 | 88 | 1009.8 |
| 20260507033042 | 65 | 0 | 0.0 | 0.9 | 0.00 | 0.05 | 0.05 | 88 | 1009.8 |
| 20260507031543 | 65 | 0 | 0.0 | 2.6 | 0.00 | 0.05 | 0.05 | 88 | 1009.3 |
| 20260507030042 | 65 | 0 | 0.0 | 0.0 | 0.00 | 0.05 | 0.05 | 88 | 1009.1 |
| 20260507024551 | 65 | 223 | 0.0 | 1.7 | 0.00 | 0.05 | 0.05 | 87 | 1009.4 |
| 20260507023036 | 66 | 231 | 0.0 | 2.6 | 0.00 | 0.05 | 0.05 | 86 | 1009.3 |
| 20260507021548 | 66 | 0 | 0.0 | 3.5 | 0.00 | 0.05 | 0.05 | 85 | 1009.7 |
| 20260507020048 | 66 | 276 | 1.7 | 5.2 | 0.00 | 0.05 | 0.05 | 85 | 1009.9 |
| 20260507014543 | 66 | 253 | 0.9 | 3.5 | 0.00 | 0.05 | 0.05 | 84 | 1009.9 |
| 20260507013039 | 66 | 279 | 0.0 | 2.6 | 0.00 | 0.05 | 0.05 | 85 | 1009.4 |
| 20260507011542 | 66 | 0 | 0.0 | 2.6 | 0.00 | 0.05 | 0.05 | 84 | 1009.2 |
| 20260507010042 | 67 | 0 | 0.9 | 6.1 | 0.00 | 0.05 | 0.05 | 82 | 1009.4 |
| 20260507004540 | 67 | 267 | 1.7 | 3.5 | 0.00 | 0.05 | 0.05 | 82 | 1009.5 |
| 20260507003041 | 67 | 264 | 0.0 | 3.5 | 0.00 | 0.05 | 0.05 | 82 | 1009.5 |
| 20260507001546 | 68 | 243 | 1.7 | 7.8 | 0.00 | 0.05 | 0.05 | 80 | 1009.5 |
| 20260507000037 | 69 | 256 | 1.7 | 7.0 | 0.00 | 0.05 | 0.05 | 80 | 1009.4 |
| 20260506234535 | 69 | 220 | 1.7 | 7.8 | 0.00 | 0.05 | 0.05 | 79 | 1009.2 |
| 20260506233048 | 70 | 238 | 1.7 | 7.0 | 0.00 | 0.05 | 0.05 | 79 | 1009.1 |
| 20260506231538 | 70 | 231 | 1.7 | 8.7 | 0.00 | 0.05 | 0.05 | 79 | 1009.2 |
| 20260506230045 | 70 | 256 | 3.5 | 8.7 | 0.00 | 0.05 | 0.05 | 79 | 1009.1 |
| 20260506224536 | 70 | 242 | 2.6 | 8.7 | 0.00 | 0.05 | 0.05 | 78 | 1009.2 |
| 20260506223039 | 70 | 217 | 3.5 | 7.8 | 0.00 | 0.05 | 0.05 | 78 | 1009.1 |
| 20260506221545 | 70 | 275 | 5.2 | 11.3 | 0.00 | 0.05 | 0.05 | 78 | 1009.3 |
| 20260506220049 | 70 | 261 | 3.5 | 8.7 | 0.00 | 0.05 | 0.05 | 78 | 1009.5 |
| 20260506214537 | 70 | 234 | 4.3 | 9.6 | 0.00 | 0.05 | 0.05 | 78 | 1009.5 |
| 20260506213036 | 69 | 246 | 3.5 | 10.4 | 0.00 | 0.05 | 0.05 | 79 | 1009.5 |
| 20260506211544 | 69 | 274 | 4.3 | 11.3 | 0.00 | 0.05 | 0.05 | 79 | 1009.4 |
| 20260506210035 | 69 | 198 | 3.5 | 10.4 | 0.00 | 0.05 | 0.05 | 79 | 1009.3 |
| 20260506204538 | 68 | 278 | 1.7 | 8.7 | 0.00 | 0.05 | 0.05 | 81 | 1009.4 |
| 20260506203036 | 67 | 307 | 3.5 | 9.6 | 0.00 | 0.05 | 0.05 | 81 | 1009.1 |
| 20260506201536 | 67 | 235 | 4.3 | 11.3 | 0.00 | 0.05 | 0.05 | 80 | 1009.3 |
| 20260506200036 | 67 | 280 | 5.2 | 10.4 | 0.00 | 0.05 | 0.05 | 80 | 1009.3 |
| 20260506194538 | 67 | 278 | 5.2 | 14.8 | 0.00 | 0.05 | 0.05 | 80 | 1009.5 |
| 20260506193038 | 67 | 262 | 5.2 | 13.0 | 0.00 | 0.05 | 0.05 | 81 | 1009.6 |
| 20260506191537 | 67 | 238 | 4.3 | 12.2 | 0.00 | 0.05 | 0.05 | 82 | 1010.1 |
| 20260506190038 | 67 | 252 | 3.5 | 7.8 | 0.00 | 0.05 | 0.05 | 82 | 1010.3 |
| 20260506184544 | 67 | 261 | 3.5 | 11.3 | 0.00 | 0.05 | 0.05 | 82 | 1010.2 |
| 20260506183044 | 67 | 321 | 3.5 | 8.7 | 0.00 | 0.05 | 0.05 | 81 | 1010.3 |
| 20260506181540 | 67 | 92 | 1.7 | 11.3 | 0.00 | 0.05 | 0.05 | 82 | 1010.4 |
| 20260506180038 | 66 | 271 | 2.6 | 10.4 | 0.00 | 0.05 | 0.05 | 83 | 1010.6 |
| 20260506174538 | 66 | 223 | 2.6 | 13.0 | 0.00 | 0.05 | 0.05 | 84 | 1010.6 |
| 20260506173055 | 66 | 230 | 4.3 | 9.6 | 0.00 | 0.05 | 0.05 | 84 | 1010.7 |
| 20260506171542 | 65 | 269 | 3.5 | 11.3 | 0.00 | 0.05 | 0.05 | 87 | 1010.7 |
| 20260506170046 | 64 | 233 | 2.6 | 7.8 | 0.00 | 0.05 | 0.05 | 88 | 1011.1 |
| 20260506164536 | 63 | 291 | 2.6 | 8.7 | 0.00 | 0.05 | 0.05 | 91 | 1011.1 |
| 20260506163035 | 62 | 295 | 3.5 | 10.4 | 0.01 | 0.05 | 0.05 | 91 | 1011.0 |
| 20260506161538 | 62 | 267 | 3.5 | 7.8 | 0.04 | 0.05 | 0.05 | 91 | 1011.2 |
| 20260506160035 | 62 | 322 | 2.6 | 10.4 | 0.05 | 0.05 | 0.05 | 91 | 1011.4 |
| 20260506154541 | 62 | 0 | 3.5 | 10.4 | 0.05 | 0.05 | 0.05 | 90 | 1011.5 |
| 20260506153042 | 62 | 275 | 2.6 | 8.7 | 0.04 | 0.04 | 0.04 | 89 | 1011.7 |
| 20260506151534 | 63 | 266 | 4.3 | 11.3 | 0.01 | 0.01 | 0.01 | 85 | 1012.2 |
| 20260506150045 | 64 | 94 | 2.6 | 9.6 | 0.00 | 0.00 | 0.00 | 82 | 1012.3 |
| 20260506144558 | 65 | 300 | 5.2 | 13.9 | 0.00 | 0.00 | 0.00 | 77 | 1012.3 |
| 20260506143049 | 66 | 219 | 3.5 | 11.3 | 0.00 | 0.00 | 0.00 | 74 | 1012.0 |
| 20260506141536 | 66 | 246 | 4.3 | 8.7 | 0.00 | 0.00 | 0.00 | 73 | 1011.9 |
| 20260506140053 | 66 | 336 | 3.5 | 11.3 | 0.00 | 0.00 | 0.00 | 74 | 1011.8 |
| 20260506134536 | 66 | 213 | 1.7 | 9.6 | 0.00 | 0.00 | 0.00 | 73 | 1012.0 |
| 20260506133040 | 67 | 292 | 4.3 | 10.4 | 0.00 | 0.00 | 0.00 | 70 | 1011.8 |
| 20260506131543 | 67 | 268 | 2.6 | 9.6 | 0.00 | 0.00 | 0.00 | 70 | 1011.8 |
| 20260506130045 | 66 | 213 | 1.7 | 16.5 | 0.00 | 0.00 | 0.00 | 71 | 1011.8 |
| 20260506124536 | 66 | 355 | 3.5 | 8.7 | 0.00 | 0.00 | 0.00 | 71 | 1011.7 |
| 20260506123046 | 66 | 271 | 3.5 | 10.4 | 0.00 | 0.00 | 0.00 | 71 | 1011.8 |
| 20260506121550 | 66 | 146 | 3.5 | 12.2 | 0.00 | 0.00 | 0.00 | 72 | 1011.7 |
| 20260506120040 | 65 | 225 | 3.5 | 9.6 | 0.00 | 0.00 | 0.00 | 72 | 1012.1 |
| 20260506114535 | 65 | 123 | 1.7 | 12.2 | 0.00 | 0.00 | 0.00 | 72 | 1011.9 |
| 20260506113039 | 64 | 263 | 3.5 | 9.6 | 0.00 | 0.00 | 0.00 | 72 | 1012.0 |
| 20260506111541 | 64 | 288 | 2.6 | 10.4 | 0.00 | 0.00 | 0.00 | 73 | 1011.9 |
| 20260506110042 | 64 | 257 | 3.5 | 8.7 | 0.00 | 0.00 | 0.00 | 73 | 1011.8 |
| 20260506104536 | 64 | 311 | 1.7 | 10.4 | 0.00 | 0.00 | 0.00 | 73 | 1011.6 |
| 20260506103035 | 63 | 260 | 3.5 | 9.6 | 0.00 | 0.00 | 0.00 | 74 | 1011.4 |
| 20260506101541 | 63 | 236 | 2.6 | 7.8 | 0.00 | 0.00 | 0.00 | 75 | 1011.3 |
| 20260506100050 | 63 | 280 | 1.7 | 9.6 | 0.00 | 0.00 | 0.00 | 75 | 1011.4 |
| 20260506094536 | 63 | 240 | 1.7 | 8.7 | 0.00 | 0.00 | 0.00 | 75 | 1011.4 |
| 20260506093037 | 63 | 317 | 3.5 | 7.8 | 0.00 | 0.00 | 0.00 | 76 | 1011.3 |